Terminal Aerodrome Forecast
Issued by NWS

Home | Current Version | Previous Version | Graphics & Text | Print | Product List | Glossary On
Versions: 1 2 3 4 5 6 7 8 9 10 11 12 13 14
000
FTUS45 KGGW 231100
TAFOLF
TAF
KOLF 231132Z 2312/2412 10008KT P6SM BKN120
     FM231300 VRB06KT P6SM -SHRA SCT030 BKN060
     FM231500 29020KT P6SM -SHRA BKN045
     FM231800 29020G30KT P6SM VCSH BKN060
     FM240000 27017KT P6SM BKN100=

USA.gov is the U.S. government's official web portal to all federal, state and local government web resources and services.